createdAt,value
2022-09-12T00:00:08.070Z,31.9
2022-09-12T00:01:08.734Z,32.7
2022-09-12T00:02:09.336Z,34.2
2022-09-12T00:03:09.891Z,28.0
2022-09-12T00:04:10.490Z,31.0
2022-09-12T00:05:11.087Z,33.7
2022-09-12T00:06:11.689Z,32.1
2022-09-12T00:07:12.281Z,32.0
2022-09-12T00:08:12.879Z,30.8
2022-09-12T00:09:13.475Z,32.6
2022-09-12T00:10:14.076Z,28.6
2022-09-12T00:11:14.671Z,28.2
2022-09-12T00:12:15.272Z,30.3
2022-09-12T00:13:15.868Z,27.3
2022-09-12T00:14:16.468Z,33.2
2022-09-12T00:15:17.073Z,37.7
2022-09-12T00:16:17.690Z,37.1
2022-09-12T00:17:18.277Z,33.2
2022-09-12T00:18:18.875Z,34.6
2022-09-12T00:19:19.470Z,36.2
2022-09-12T00:20:20.070Z,39.7
2022-09-12T00:21:20.666Z,38.9
2022-09-12T00:22:21.266Z,38.5
2022-09-12T00:23:21.861Z,45.6
2022-09-12T00:24:22.462Z,38.5
2022-09-12T00:25:23.059Z,39.8
2022-09-12T00:26:23.676Z,36.8
2022-09-12T00:27:24.273Z,35.0
2022-09-12T00:28:24.872Z,32.4
2022-09-12T00:29:25.467Z,37.9
2022-09-12T00:30:26.067Z,36.0
2022-09-12T00:31:26.703Z,42.7
2022-09-12T00:32:27.315Z,41.5
2022-09-12T00:33:27.911Z,40.1
2022-09-12T00:34:28.513Z,42.3
2022-09-12T00:35:29.129Z,44.4
2022-09-12T00:36:29.729Z,39.6
2022-09-12T00:37:30.326Z,41.7
2022-09-12T00:38:30.923Z,39.6
2022-09-12T00:39:31.523Z,41.3
2022-09-12T00:40:32.121Z,43.0
2022-09-12T00:41:32.724Z,44.5
2022-09-12T00:42:33.340Z,45.6
2022-09-12T00:43:33.937Z,44.3
2022-09-12T00:44:34.537Z,50.9
2022-09-12T00:45:35.195Z,43.6
2022-09-12T00:46:35.736Z,44.2
2022-09-12T00:47:36.334Z,48.9
2022-09-12T00:48:36.953Z,46.9
2022-09-12T00:49:37.568Z,51.9
2022-09-12T00:50:38.167Z,52.1
2022-09-12T00:51:38.771Z,54.1
2022-09-12T00:52:39.366Z,50.2
2022-09-12T00:53:39.958Z,52.8
2022-09-12T00:54:40.558Z,50.7
2022-09-12T00:55:41.157Z,49.4
2022-09-12T00:56:41.756Z,56.7
2022-09-12T00:57:42.356Z,53.9
2022-09-12T00:58:42.954Z,56.4
2022-09-12T00:59:43.554Z,51.5
2022-09-12T01:00:44.191Z,56.7
2022-09-12T01:01:44.821Z,60.0
2022-09-12T01:02:45.394Z,56.3
2022-09-12T01:03:45.995Z,60.8
2022-09-12T01:04:46.594Z,56.5
2022-09-12T01:05:47.193Z,57.3
2022-09-12T01:06:47.792Z,59.2
2022-09-12T01:07:48.391Z,63.7
2022-09-12T01:08:48.991Z,64.4
2022-09-12T01:09:49.590Z,72.1
2022-09-12T01:10:50.189Z,65.6
2022-09-12T01:11:50.788Z,73.9
2022-09-12T01:12:51.387Z,70.6
2022-09-12T01:13:51.987Z,73.0
2022-09-12T01:14:52.607Z,67.9
2022-09-12T01:15:53.202Z,66.7
2022-09-12T01:16:53.801Z,59.1
2022-09-12T01:17:54.396Z,62.4
2022-09-12T01:18:54.994Z,66.5
2022-09-12T01:19:55.594Z,59.9
2022-09-12T01:20:56.191Z,58.2
2022-09-12T01:21:56.791Z,59.3
2022-09-12T01:22:57.389Z,67.0
2022-09-12T01:23:57.988Z,63.9
2022-09-12T01:24:58.583Z,65.4
2022-09-12T01:25:59.183Z,66.6
2022-09-12T01:26:59.785Z,65.2
2022-09-12T01:28:00.380Z,62.0
2022-09-12T01:29:00.977Z,59.3
2022-09-12T01:30:01.574Z,66.5
2022-09-12T01:31:02.169Z,59.0
2022-09-12T01:32:02.822Z,60.1
2022-09-12T01:33:03.382Z,66.5
2022-09-12T01:34:03.983Z,68.6
2022-09-12T01:35:04.578Z,62.8
2022-09-12T01:36:05.196Z,53.2
2022-09-12T01:37:05.797Z,62.7
2022-09-12T01:38:06.395Z,62.8
2022-09-12T01:39:06.997Z,67.1
2022-09-12T01:40:07.631Z,70.4
2022-09-12T01:41:08.219Z,75.4
2022-09-12T01:42:08.820Z,72.5
2022-09-12T01:43:09.418Z,65.3
2022-09-12T01:44:10.017Z,72.7
2022-09-12T01:45:10.616Z,78.3
2022-09-12T01:46:11.237Z,75.5
2022-09-12T01:47:11.834Z,77.4
2022-09-12T01:48:12.432Z,74.2
2022-09-12T01:49:13.030Z,78.0
2022-09-12T01:50:13.627Z,80.8
2022-09-12T01:51:14.230Z,69.1
2022-09-12T01:52:14.842Z,66.7
2022-09-12T01:53:15.441Z,72.9
2022-09-12T01:54:16.034Z,69.6
2022-09-12T01:55:16.633Z,64.0
2022-09-12T01:56:17.233Z,77.0
2022-09-12T01:57:17.829Z,72.4
2022-09-12T01:58:18.427Z,76.4
2022-09-12T01:59:19.024Z,77.2
2022-09-12T02:00:19.622Z,83.3
2022-09-12T02:01:20.245Z,65.2
2022-09-12T02:02:20.929Z,77.2
2022-09-12T02:03:21.500Z,76.9
2022-09-12T02:04:22.099Z,67.9
2022-09-12T02:05:22.696Z,66.6
2022-09-12T02:06:23.295Z,74.0
2022-09-12T02:07:23.892Z,75.1
2022-09-12T02:08:24.492Z,69.9
2022-09-12T02:09:25.090Z,77.8
2022-09-12T02:10:29.158Z,75.1
2022-09-12T02:11:26.304Z,76.3
2022-09-12T02:12:26.899Z,76.0
2022-09-12T02:13:27.495Z,74.5
2022-09-12T02:14:28.094Z,75.5
2022-09-12T02:15:28.690Z,77.1
2022-09-12T02:16:29.354Z,72.1
2022-09-12T02:17:29.919Z,70.6
2022-09-12T02:18:30.517Z,64.7
2022-09-12T02:19:31.115Z,61.0
2022-09-12T02:20:47.353Z,63.2
2022-09-12T02:21:33.302Z,64.6
2022-09-12T02:22:33.903Z,67.9
2022-09-12T02:23:34.500Z,60.9
2022-09-12T02:24:35.098Z,70.8
2022-09-12T02:25:35.694Z,65.9
2022-09-12T02:26:36.311Z,70.0
2022-09-12T02:27:36.908Z,71.1
2022-09-12T02:28:37.506Z,74.3
2022-09-12T02:29:38.103Z,76.4
2022-09-12T02:30:38.744Z,74.0
2022-09-12T02:31:39.302Z,78.4
2022-09-12T02:32:39.920Z,79.1
2022-09-12T02:33:40.518Z,79.4
2022-09-12T02:34:41.116Z,81.0
2022-09-12T02:35:41.715Z,92.7
2022-09-12T02:36:42.313Z,90.9
2022-09-12T02:37:42.909Z,93.9
2022-09-12T02:38:43.507Z,91.4
2022-09-12T02:39:45.524Z,85.9
2022-09-12T02:40:45.697Z,75.4
2022-09-12T02:41:46.316Z,76.6
2022-09-12T02:42:46.916Z,82.7
2022-09-12T02:43:47.514Z,88.5
2022-09-12T02:44:48.115Z,80.0
2022-09-12T02:45:48.734Z,81.0
2022-09-12T02:46:49.313Z,75.2
2022-09-12T02:47:49.909Z,72.8
2022-09-12T02:48:50.507Z,74.6
2022-09-12T02:49:51.105Z,62.9
2022-09-12T02:50:51.702Z,70.7
2022-09-12T02:51:52.298Z,58.0
2022-09-12T02:52:52.895Z,55.4
2022-09-12T02:53:53.495Z,64.5
2022-09-12T02:54:54.094Z,66.7
2022-09-12T02:55:54.692Z,74.5
2022-09-12T02:56:55.313Z,65.6
2022-09-12T02:57:55.913Z,72.2
2022-09-12T02:58:56.507Z,77.3
2022-09-12T02:59:57.107Z,78.6
2022-09-12T03:00:57.749Z,81.9
2022-09-12T03:01:58.340Z,79.4
2022-09-12T03:02:58.917Z,78.4
2022-09-12T03:03:59.512Z,90.1
2022-09-12T03:05:00.113Z,82.1
2022-09-12T03:06:00.708Z,87.2
2022-09-12T03:07:01.307Z,83.2
2022-09-12T03:08:01.903Z,71.7
2022-09-12T03:09:02.503Z,63.8
2022-09-12T03:10:03.100Z,68.7
2022-09-12T03:11:03.699Z,64.7
2022-09-12T03:12:04.292Z,61.5
2022-09-12T03:13:04.890Z,74.0
2022-09-12T03:14:05.493Z,63.3
2022-09-12T03:15:06.106Z,63.8
2022-09-12T03:16:06.769Z,56.9
2022-09-12T03:17:07.324Z,56.6
2022-09-12T03:18:07.918Z,57.5
2022-09-12T03:19:08.517Z,51.5
2022-09-12T03:20:09.114Z,55.2
2022-09-12T03:21:09.713Z,63.6
2022-09-12T03:22:10.327Z,72.5
2022-09-12T03:23:10.925Z,71.9
2022-09-12T03:24:11.523Z,86.5
2022-09-12T03:25:12.119Z,82.3
2022-09-12T03:26:12.717Z,78.2
2022-09-12T03:27:13.317Z,76.7
2022-09-12T03:28:13.914Z,59.7
2022-09-12T03:29:14.513Z,51.4
2022-09-12T03:30:15.111Z,49.1
2022-09-12T03:31:15.711Z,46.6
2022-09-12T03:32:16.310Z,47.0
2022-09-12T03:33:16.933Z,48.7
2022-09-12T03:34:17.524Z,56.7
2022-09-12T03:35:22.341Z,60.6
2022-09-12T03:36:19.711Z,64.4
2022-09-12T03:37:20.311Z,78.7
2022-09-12T03:38:20.908Z,71.8
2022-09-12T03:39:21.509Z,71.5
2022-09-12T03:40:22.106Z,73.3
2022-09-12T03:41:22.711Z,90.9
2022-09-12T03:42:23.325Z,104.2
2022-09-12T03:43:23.924Z,88.5
2022-09-12T03:44:24.520Z,92.5
2022-09-12T03:45:25.195Z,80.7
2022-09-12T03:46:25.777Z,84.5
2022-09-12T03:47:26.374Z,83.1
2022-09-12T03:48:26.977Z,78.2
2022-09-12T03:49:27.572Z,87.0
2022-09-12T03:50:28.170Z,83.3
2022-09-12T03:51:28.768Z,78.8
2022-09-12T03:52:29.367Z,75.0
2022-09-12T03:53:29.967Z,74.1
2022-09-12T03:54:30.564Z,85.7
2022-09-12T03:55:31.168Z,71.6
2022-09-12T03:56:31.763Z,69.2
2022-09-12T03:57:32.363Z,68.1
2022-09-12T03:58:32.962Z,67.0
2022-09-12T03:59:33.563Z,69.6
2022-09-12T04:00:34.158Z,66.6
2022-09-12T04:01:34.758Z,64.8
2022-09-12T04:02:35.410Z,77.5
2022-09-12T04:03:35.968Z,62.1
2022-09-12T04:04:36.565Z,54.2
2022-09-12T04:05:37.161Z,65.7
2022-09-12T04:06:37.762Z,65.7
2022-09-12T04:07:38.360Z,70.3
2022-09-12T04:08:38.964Z,103.1
2022-09-12T04:09:39.558Z,89.7
2022-09-12T04:10:40.157Z,111.8
2022-09-12T04:11:40.761Z,86.0
2022-09-12T04:12:41.377Z,89.0
2022-09-12T04:13:41.978Z,81.5
2022-09-12T04:14:42.574Z,97.1
2022-09-12T04:15:43.174Z,99.0
2022-09-12T04:16:43.797Z,110.1
2022-09-12T04:17:44.372Z,102.8
2022-09-12T04:18:45.058Z,103.3
2022-09-12T04:19:45.884Z,106.9
2022-09-12T04:20:46.481Z,97.6
2022-09-12T04:21:47.081Z,106.1
2022-09-12T04:22:47.686Z,108.8
2022-09-12T04:23:48.279Z,97.0
2022-09-12T04:24:48.878Z,103.2
2022-09-12T04:25:49.478Z,122.7
2022-09-12T04:26:50.076Z,118.9
2022-09-12T04:27:50.676Z,115.7
2022-09-12T04:28:51.276Z,109.6
2022-09-12T04:29:51.880Z,115.0
2022-09-12T04:30:52.525Z,128.8
2022-09-12T04:31:53.089Z,114.7
2022-09-12T04:32:53.690Z,117.5
2022-09-12T04:33:54.290Z,114.4
2022-09-12T04:34:54.891Z,129.3
2022-09-12T04:35:55.491Z,101.7
2022-09-12T04:36:56.089Z,87.4
2022-09-12T04:37:56.688Z,93.0
2022-09-12T04:38:57.287Z,88.8
2022-09-12T04:39:58.070Z,88.7
2022-09-12T04:40:58.641Z,97.6
2022-09-12T04:41:59.241Z,95.1
2022-09-12T04:42:59.841Z,108.6
2022-09-12T04:44:00.453Z,111.5
2022-09-12T04:45:01.075Z,98.0
2022-09-12T04:46:01.711Z,111.5
2022-09-12T04:47:02.290Z,96.7
2022-09-12T04:48:02.892Z,113.4
2022-09-12T04:49:03.496Z,115.8
2022-09-12T04:50:04.100Z,116.6
2022-09-12T04:51:04.698Z,122.4
2022-09-12T04:52:05.301Z,102.8
2022-09-12T04:53:05.901Z,114.2
2022-09-12T04:54:06.521Z,116.3
2022-09-12T04:55:07.121Z,95.6
2022-09-12T04:56:07.722Z,108.7
2022-09-12T04:57:08.329Z,114.8
2022-09-12T04:58:08.925Z,99.7
2022-09-12T04:59:09.527Z,102.5
2022-09-12T05:00:10.130Z,109.2
2022-09-12T05:01:10.753Z,120.1
2022-09-12T05:02:11.362Z,123.0
2022-09-12T05:03:11.939Z,151.4
2022-09-12T05:04:12.541Z,216.1
2022-09-12T05:05:13.145Z,172.9
2022-09-12T05:06:13.751Z,160.4
2022-09-12T05:07:14.360Z,140.6
2022-09-12T05:08:14.955Z,134.1
2022-09-12T05:09:15.558Z,106.1
2022-09-12T05:10:16.160Z,133.3
2022-09-12T05:11:16.764Z,124.0
2022-09-12T05:12:17.367Z,167.5
2022-09-12T05:13:17.972Z,263.1
2022-09-12T05:14:18.582Z,187.6
2022-09-12T05:15:19.178Z,145.1
2022-09-12T05:16:19.800Z,168.2
2022-09-12T05:17:20.388Z,231.8
2022-09-12T05:18:20.992Z,131.9
2022-09-12T05:19:21.594Z,137.5
2022-09-12T05:20:22.200Z,127.6
2022-09-12T05:21:22.805Z,115.8
2022-09-12T05:22:23.431Z,103.9
2022-09-12T05:23:24.034Z,97.0
2022-09-12T05:24:24.659Z,132.2
2022-09-12T05:25:25.242Z,106.5
2022-09-12T05:26:25.848Z,102.1
2022-09-12T05:27:26.456Z,104.9
2022-09-12T05:28:27.054Z,109.2
2022-09-12T05:29:27.658Z,114.3
2022-09-12T05:30:28.287Z,110.3
2022-09-12T05:31:28.866Z,105.4
2022-09-12T05:32:29.470Z,96.7
2022-09-12T05:33:30.072Z,102.9
2022-09-12T05:34:30.678Z,200.0
2022-09-12T05:35:31.304Z,159.6
2022-09-12T05:36:31.908Z,106.7
2022-09-12T05:37:32.511Z,107.8
2022-09-12T05:38:33.113Z,99.9
2022-09-12T05:39:33.719Z,102.8
2022-09-12T05:40:34.324Z,106.1
2022-09-12T05:41:34.951Z,104.6
2022-09-12T05:42:35.530Z,96.7
2022-09-12T05:43:36.133Z,105.0
2022-09-12T05:44:36.736Z,90.8
2022-09-12T05:45:37.395Z,103.1
2022-09-12T05:46:37.995Z,95.9
2022-09-12T05:47:38.603Z,101.6
2022-09-12T05:48:39.207Z,92.8
2022-09-12T05:49:39.827Z,100.2
2022-09-12T05:50:40.431Z,85.2
2022-09-12T05:51:41.032Z,79.7
2022-09-12T05:52:41.635Z,80.9
2022-09-12T05:53:42.240Z,73.5
2022-09-12T05:54:42.840Z,73.2
2022-09-12T05:55:43.444Z,74.8
2022-09-12T05:56:44.132Z,73.6
2022-09-12T05:57:44.662Z,59.8
2022-09-12T05:58:45.286Z,61.2
2022-09-12T05:59:45.887Z,57.3
2022-09-12T06:00:46.487Z,51.6
2022-09-12T06:01:47.165Z,57.6
2022-09-12T06:02:47.740Z,46.7
2022-09-12T06:03:48.345Z,38.3
2022-09-12T06:04:48.944Z,34.8
2022-09-12T06:05:50.772Z,35.9
2022-09-12T06:06:51.140Z,34.5
2022-09-12T06:07:51.744Z,30.1
2022-09-12T06:08:52.343Z,31.8
2022-09-12T06:09:52.946Z,28.1
2022-09-12T06:10:53.547Z,27.7
2022-09-12T06:11:54.168Z,24.9
2022-09-12T06:12:54.767Z,22.5
2022-09-12T06:13:55.370Z,18.7
2022-09-12T06:14:55.992Z,20.7
2022-09-12T06:15:56.594Z,15.0
2022-09-12T06:16:57.268Z,13.6
2022-09-12T06:17:57.841Z,12.4
2022-09-12T06:18:58.444Z,10.6
2022-09-12T06:19:59.041Z,10.3
2022-09-12T06:20:59.642Z,10.5
2022-09-12T06:22:00.242Z,11.5
2022-09-12T06:23:00.843Z,10.2
2022-09-12T06:24:01.445Z,10.0
2022-09-12T06:25:02.045Z,9.3
2022-09-12T06:26:02.663Z,8.1
2022-09-12T06:27:03.261Z,7.7
2022-09-12T06:28:03.862Z,8.1
2022-09-12T06:29:04.459Z,7.5
2022-09-12T06:30:05.061Z,8.0
2022-09-12T06:31:05.728Z,8.8
2022-09-12T06:32:06.295Z,8.1
2022-09-12T06:33:06.893Z,8.7
2022-09-12T06:34:07.498Z,8.2
2022-09-12T06:35:08.116Z,7.5
2022-09-12T06:36:12.170Z,8.4
2022-09-12T06:37:09.332Z,8.7
2022-09-12T06:38:09.935Z,8.4
2022-09-12T06:39:10.535Z,8.4
2022-09-12T06:40:11.177Z,7.9
2022-09-12T06:41:11.751Z,7.5
2022-09-12T06:42:12.354Z,7.5
2022-09-12T06:43:12.952Z,9.2
2022-09-12T06:44:13.555Z,7.8
2022-09-12T06:45:14.174Z,8.1
2022-09-12T06:46:14.821Z,6.6
2022-09-12T06:47:15.407Z,6.2
2022-09-12T06:48:16.023Z,7.3
2022-09-12T06:49:16.622Z,6.9
2022-09-12T06:50:17.244Z,6.7
2022-09-12T06:51:17.845Z,7.0
2022-09-12T06:52:18.446Z,7.0
2022-09-12T06:53:19.049Z,6.9
2022-09-12T06:54:19.652Z,6.5
2022-09-12T06:55:23.512Z,6.9
2022-09-12T06:56:21.848Z,7.2
2022-09-12T06:57:22.451Z,7.3
2022-09-12T06:58:23.074Z,7.8
2022-09-12T06:59:23.673Z,7.6
2022-09-12T07:00:24.327Z,7.5
2022-09-12T07:01:24.918Z,6.5
2022-09-12T07:02:25.518Z,7.5
2022-09-12T07:03:26.182Z,6.2
2022-09-12T07:04:26.785Z,6.8
2022-09-12T07:05:27.386Z,6.5
2022-09-12T07:06:27.985Z,7.1
2022-09-12T07:07:28.588Z,6.2
2022-09-12T07:08:29.187Z,6.3
2022-09-12T07:09:29.788Z,6.4
2022-09-12T07:10:30.387Z,6.7
2022-09-12T07:11:31.009Z,6.9
2022-09-12T07:12:31.610Z,7.4
2022-09-12T07:13:32.213Z,6.6
2022-09-12T07:14:32.834Z,6.4
2022-09-12T07:15:33.435Z,5.7
2022-09-12T07:16:34.066Z,6.9
2022-09-12T07:17:34.636Z,6.0
2022-09-12T07:18:35.245Z,5.9
2022-09-12T07:19:35.861Z,5.6
2022-09-12T07:20:36.461Z,6.3
2022-09-12T07:21:37.060Z,6.0
2022-09-12T07:22:37.662Z,6.4
2022-09-12T07:23:38.263Z,5.5
2022-09-12T07:24:38.863Z,6.1
2022-09-12T07:25:39.485Z,5.6
2022-09-12T07:26:40.248Z,4.6
2022-09-12T07:27:40.829Z,4.7
2022-09-12T07:28:41.431Z,5.1
2022-09-12T07:29:42.034Z,4.8
2022-09-12T07:30:42.655Z,5.4
2022-09-12T07:31:43.236Z,5.0
2022-09-12T07:32:43.840Z,5.6
2022-09-12T07:33:44.502Z,5.8
2022-09-12T07:34:45.062Z,5.6
2022-09-12T07:35:45.677Z,5.2
2022-09-12T07:36:46.287Z,5.6
2022-09-12T07:37:46.889Z,5.6
2022-09-12T07:38:47.673Z,5.2
2022-09-12T07:39:48.371Z,6.2
2022-09-12T07:40:48.943Z,5.7
2022-09-12T07:41:49.545Z,5.5
2022-09-12T07:42:50.165Z,5.4
2022-09-12T07:43:50.765Z,5.8
2022-09-12T07:44:51.366Z,6.6
2022-09-12T07:45:51.992Z,5.8
2022-09-12T07:46:52.572Z,6.2
2022-09-12T07:47:53.173Z,6.7
2022-09-12T07:48:53.779Z,6.3
2022-09-12T07:49:54.377Z,6.8
2022-09-12T07:50:54.980Z,7.1
2022-09-12T07:51:55.581Z,7.0
2022-09-12T07:52:56.201Z,6.9
2022-09-12T07:53:56.818Z,7.1
2022-09-12T07:54:57.403Z,6.9
2022-09-12T07:55:58.003Z,7.4
2022-09-12T07:56:58.616Z,6.7
2022-09-12T07:57:59.206Z,6.5
2022-09-12T07:58:59.818Z,7.5
2022-09-12T08:00:00.408Z,7.6
2022-09-12T08:01:01.037Z,6.6
2022-09-12T08:02:01.756Z,6.7
2022-09-12T08:03:02.268Z,8.7
2022-09-12T08:04:02.870Z,6.7
2022-09-12T08:05:03.473Z,6.0
2022-09-12T08:06:04.074Z,5.6
2022-09-12T08:07:04.677Z,6.4
2022-09-12T08:08:05.301Z,6.9
2022-09-12T08:09:05.935Z,6.6
2022-09-12T08:10:06.522Z,6.1
2022-09-12T08:11:07.125Z,6.5
2022-09-12T08:12:07.727Z,6.8
2022-09-12T08:13:10.654Z,6.4
2022-09-12T08:14:08.949Z,6.5
2022-09-12T08:15:09.552Z,6.4
2022-09-12T08:16:10.190Z,5.8
2022-09-12T08:17:10.760Z,6.5
2022-09-12T08:18:11.362Z,6.5
2022-09-12T08:19:11.964Z,6.5
2022-09-12T08:20:12.567Z,5.9
2022-09-12T08:21:13.169Z,5.9
2022-09-12T08:22:13.775Z,5.5
2022-09-12T08:23:14.376Z,5.8
2022-09-12T08:24:14.976Z,5.8
2022-09-12T08:25:15.600Z,6.4
2022-09-12T08:26:16.201Z,5.9
2022-09-12T08:27:16.804Z,6.7
2022-09-12T08:28:17.406Z,6.7
2022-09-12T08:29:18.028Z,6.8
2022-09-12T08:30:18.636Z,6.5
2022-09-12T08:31:19.246Z,6.6
2022-09-12T08:32:19.836Z,6.3
2022-09-12T08:33:20.438Z,6.8
2022-09-12T08:34:21.041Z,6.2
2022-09-12T08:35:21.642Z,6.3
2022-09-12T08:36:22.266Z,6.7
2022-09-12T08:37:22.867Z,7.2
2022-09-12T08:38:23.470Z,7.8
2022-09-12T08:39:24.073Z,6.9
2022-09-12T08:40:24.675Z,6.6
2022-09-12T08:41:25.278Z,6.2
2022-09-12T08:42:25.879Z,6.5
2022-09-12T08:43:26.480Z,7.0
2022-09-12T08:44:27.082Z,5.4
2022-09-12T08:45:27.685Z,6.5
2022-09-12T08:46:28.331Z,6.7
2022-09-12T08:47:28.889Z,6.6
2022-09-12T08:48:29.493Z,7.0
2022-09-12T08:49:30.113Z,6.0
2022-09-12T08:50:30.718Z,6.2
2022-09-12T08:51:31.335Z,6.2
2022-09-12T08:52:31.937Z,6.3
2022-09-12T08:53:32.539Z,6.1
2022-09-12T08:54:33.150Z,6.7
2022-09-12T08:55:33.769Z,6.5
2022-09-12T08:56:34.365Z,5.6
2022-09-12T08:57:34.973Z,15.1
2022-09-12T08:58:35.639Z,6.4
2022-09-12T08:59:36.202Z,6.0
2022-09-12T09:00:36.796Z,5.0
2022-09-12T09:01:37.490Z,5.8
2022-09-12T09:02:38.119Z,5.7
2022-09-12T09:03:38.663Z,5.1
2022-09-12T09:04:39.265Z,5.4
2022-09-12T09:05:39.868Z,5.7
2022-09-12T09:06:40.470Z,5.3
2022-09-12T09:07:41.075Z,5.0
2022-09-12T09:08:41.695Z,5.0
2022-09-12T09:09:42.321Z,5.3
2022-09-12T09:10:42.917Z,4.5
2022-09-12T09:11:43.519Z,4.6
2022-09-12T09:12:44.122Z,4.5
2022-09-12T09:13:44.758Z,5.1
2022-09-12T09:14:45.322Z,5.4
2022-09-12T09:15:45.967Z,5.5
2022-09-12T09:16:46.550Z,5.0
2022-09-12T09:17:47.172Z,5.1
2022-09-12T09:18:47.792Z,4.9
2022-09-12T09:19:50.837Z,4.6
2022-09-12T09:20:49.989Z,4.4
2022-09-12T09:21:50.612Z,4.9
2022-09-12T09:22:51.302Z,4.5
2022-09-12T09:23:51.829Z,4.6
2022-09-12T09:24:52.430Z,4.5
2022-09-12T09:25:53.035Z,6.2
2022-09-12T09:26:53.633Z,5.2
2022-09-12T09:27:54.237Z,4.6
2022-09-12T09:28:54.838Z,4.8
2022-09-12T09:29:55.441Z,4.4
2022-09-12T09:30:56.081Z,4.7
2022-09-12T09:31:56.644Z,4.6
2022-09-12T09:32:57.245Z,4.2
2022-09-12T09:33:57.848Z,4.0
2022-09-12T09:34:58.452Z,4.0
2022-09-12T09:35:59.074Z,4.6
2022-09-12T09:36:59.674Z,4.2
2022-09-12T09:38:00.278Z,4.5
2022-09-12T09:39:00.878Z,4.5
2022-09-12T09:40:01.512Z,4.7
2022-09-12T09:41:02.115Z,4.1
2022-09-12T09:42:02.719Z,4.3
2022-09-12T09:43:03.320Z,4.5
2022-09-12T09:44:04.002Z,4.0
2022-09-12T09:45:04.563Z,3.7
2022-09-12T09:46:05.188Z,3.8
2022-09-12T09:47:05.787Z,4.1
2022-09-12T09:48:06.388Z,4.0
2022-09-12T09:49:06.998Z,3.8
2022-09-12T09:50:07.617Z,4.3
2022-09-12T09:51:08.215Z,4.7
2022-09-12T09:52:08.816Z,3.5
2022-09-12T09:53:09.419Z,7.6
2022-09-12T09:54:10.042Z,4.0
2022-09-12T09:55:10.645Z,4.1
2022-09-12T09:56:11.246Z,3.2
2022-09-12T09:57:11.866Z,3.3
2022-09-12T09:58:12.467Z,3.5
2022-09-12T09:59:13.070Z,6.3
2022-09-12T10:00:13.676Z,3.3
2022-09-12T10:01:14.293Z,3.6
2022-09-12T10:02:14.920Z,3.1
2022-09-12T10:03:15.495Z,2.9
2022-09-12T10:04:16.093Z,2.7
2022-09-12T10:05:16.698Z,3.1
2022-09-12T10:06:17.321Z,3.0
2022-09-12T10:07:17.923Z,3.8
2022-09-12T10:08:18.527Z,3.1
2022-09-12T10:09:19.129Z,2.9
2022-09-12T10:10:19.729Z,2.4
2022-09-12T10:11:20.330Z,2.7
2022-09-12T10:12:20.939Z,2.9
2022-09-12T10:13:21.556Z,2.9
2022-09-12T10:14:22.160Z,2.6
2022-09-12T10:15:22.764Z,2.5
2022-09-12T10:16:23.366Z,2.9
2022-09-12T10:17:23.969Z,2.9
2022-09-12T10:18:24.569Z,2.5
2022-09-12T10:19:25.171Z,3.4
2022-09-12T10:20:25.774Z,2.9
2022-09-12T10:21:26.378Z,2.3
2022-09-12T10:22:26.980Z,3.1
2022-09-12T10:23:27.584Z,2.5
2022-09-12T10:24:28.204Z,2.8
2022-09-12T10:25:28.806Z,2.2
2022-09-12T10:26:29.410Z,14.4
2022-09-12T10:27:30.014Z,4.6
2022-09-12T10:28:30.619Z,2.6
2022-09-12T10:29:31.242Z,2.5
2022-09-12T10:30:31.880Z,2.7
2022-09-12T10:31:32.452Z,2.9
2022-09-12T10:32:33.053Z,3.3
2022-09-12T10:33:33.658Z,3.0
2022-09-12T10:34:34.261Z,2.8
2022-09-12T10:35:34.866Z,2.3
2022-09-12T10:36:35.467Z,3.4
2022-09-12T10:37:36.070Z,2.8
2022-09-12T10:38:36.690Z,2.6
2022-09-12T10:39:37.294Z,3.3
2022-09-12T10:40:37.894Z,2.5
2022-09-12T10:41:38.498Z,2.5
2022-09-12T10:42:39.101Z,2.3
2022-09-12T10:43:39.706Z,2.3
2022-09-12T10:44:40.311Z,3.1
2022-09-12T10:45:40.959Z,2.3
2022-09-12T10:46:41.515Z,2.5
2022-09-12T10:47:42.141Z,3.6
2022-09-12T10:48:42.743Z,2.5
2022-09-12T10:49:43.347Z,2.1
2022-09-12T10:50:43.957Z,5.7
2022-09-12T10:51:44.578Z,2.4
2022-09-12T10:52:45.202Z,2.4
2022-09-12T10:53:45.820Z,2.7
2022-09-12T10:54:46.411Z,2.2
2022-09-12T10:55:47.033Z,2.1
2022-09-12T10:56:47.633Z,2.3
2022-09-12T10:57:48.235Z,2.2
2022-09-12T10:58:48.837Z,2.5
2022-09-12T10:59:49.441Z,3.0
2022-09-12T11:00:50.042Z,2.1
2022-09-12T11:01:50.712Z,2.6
2022-09-12T11:02:51.379Z,2.4
2022-09-12T11:03:51.989Z,2.2
2022-09-12T11:04:52.593Z,2.2
2022-09-12T11:05:53.195Z,2.5
2022-09-12T11:06:53.796Z,2.9
2022-09-12T11:07:54.421Z,2.5
2022-09-12T11:08:55.043Z,2.5
2022-09-12T11:09:55.645Z,2.4
2022-09-12T11:10:56.266Z,2.7
2022-09-12T11:11:56.894Z,2.9
2022-09-12T11:12:57.491Z,3.7
2022-09-12T11:13:58.092Z,2.5
2022-09-12T11:14:58.692Z,2.3
2022-09-12T11:15:59.346Z,2.2
2022-09-12T11:16:59.928Z,2.4
2022-09-12T11:18:00.540Z,2.0
2022-09-12T11:19:01.134Z,3.2
2022-09-12T11:20:01.735Z,2.3
2022-09-12T11:21:02.338Z,2.1
2022-09-12T11:22:02.940Z,2.6
2022-09-12T11:23:03.543Z,6.2
2022-09-12T11:24:04.166Z,5.0
2022-09-12T11:25:04.788Z,2.9
2022-09-12T11:26:05.390Z,2.5
2022-09-12T11:27:05.992Z,2.7
2022-09-12T11:28:06.598Z,2.8
2022-09-12T11:29:07.198Z,2.9
2022-09-12T11:30:07.802Z,2.8
2022-09-12T11:31:08.456Z,2.5
2022-09-12T11:32:09.029Z,2.5
2022-09-12T11:33:09.633Z,2.5
2022-09-12T11:34:10.239Z,2.8
2022-09-12T11:35:15.168Z,2.9
2022-09-12T11:36:12.457Z,3.1
2022-09-12T11:37:16.175Z,4.2
2022-09-12T11:38:14.662Z,3.7
2022-09-12T11:39:15.284Z,3.2
2022-09-12T11:40:15.922Z,3.0
2022-09-12T11:41:16.508Z,2.5
2022-09-12T11:42:17.112Z,2.7
2022-09-12T11:43:17.716Z,2.8
2022-09-12T11:44:18.319Z,4.7
2022-09-12T11:45:18.923Z,3.1
2022-09-12T11:46:19.581Z,3.6
2022-09-12T11:47:20.128Z,3.5
2022-09-12T11:48:20.729Z,3.0
2022-09-12T11:49:21.332Z,3.8
2022-09-12T11:50:21.938Z,6.0
2022-09-12T11:51:22.541Z,3.8
2022-09-12T11:52:23.146Z,4.9
2022-09-12T11:53:23.748Z,3.2
2022-09-12T11:54:24.351Z,3.1
2022-09-12T11:55:24.953Z,3.1
2022-09-12T11:56:25.558Z,3.3
2022-09-12T11:57:26.161Z,3.3
2022-09-12T11:58:26.786Z,3.4
2022-09-12T11:59:27.408Z,4.0
2022-09-12T12:00:28.013Z,3.3
2022-09-12T12:01:28.619Z,5.8
2022-09-12T12:02:29.290Z,3.1
2022-09-12T12:03:29.961Z,3.4
2022-09-12T12:04:30.529Z,3.1
2022-09-12T12:05:31.298Z,2.6
2022-09-12T12:06:31.845Z,2.7
2022-09-12T12:07:32.446Z,3.2
2022-09-12T12:08:33.236Z,2.6
2022-09-12T12:09:33.836Z,2.4
2022-09-12T12:10:34.440Z,2.6
2022-09-12T12:11:35.061Z,2.9
2022-09-12T12:12:35.685Z,3.2
2022-09-12T12:13:36.308Z,2.7
2022-09-12T12:14:36.914Z,2.5
2022-09-12T12:15:37.588Z,3.3
2022-09-12T12:16:38.158Z,2.5
2022-09-12T12:17:38.761Z,2.7
2022-09-12T12:18:39.364Z,2.4
2022-09-12T12:19:39.964Z,2.7
2022-09-12T12:20:40.570Z,2.7
2022-09-12T12:21:41.181Z,2.6
2022-09-12T12:22:41.784Z,3.3
2022-09-12T12:23:42.411Z,2.6
2022-09-12T12:24:42.989Z,2.8
2022-09-12T12:25:43.592Z,2.8
2022-09-12T12:26:44.195Z,4.0
2022-09-12T12:27:44.827Z,2.5
2022-09-12T12:28:45.497Z,5.9
2022-09-12T12:29:46.158Z,3.5
2022-09-12T12:30:46.761Z,4.1
2022-09-12T12:31:47.324Z,2.5
2022-09-12T12:32:47.919Z,3.1
2022-09-12T12:33:48.523Z,2.8
2022-09-12T12:34:49.125Z,2.8
2022-09-12T12:35:49.735Z,2.7
2022-09-12T12:36:50.365Z,2.8
2022-09-12T12:37:50.955Z,2.3
2022-09-12T12:38:51.557Z,3.1
2022-09-12T12:39:52.185Z,2.9
2022-09-12T12:40:52.785Z,2.8
2022-09-12T12:41:53.384Z,3.1
2022-09-12T12:42:53.991Z,2.2
2022-09-12T12:43:54.592Z,2.7
2022-09-12T12:44:55.197Z,2.3
2022-09-12T12:45:55.826Z,2.9
2022-09-12T12:46:56.403Z,2.9
2022-09-12T12:47:57.004Z,3.0
2022-09-12T12:48:57.608Z,3.3
2022-09-12T12:49:58.212Z,2.9
2022-09-12T12:50:58.817Z,3.1
2022-09-12T12:51:59.418Z,3.7
2022-09-12T12:53:00.026Z,3.5
2022-09-12T12:54:00.623Z,3.2
2022-09-12T12:55:01.227Z,2.6
2022-09-12T12:56:01.850Z,2.8
2022-09-12T12:57:02.453Z,2.6
2022-09-12T12:58:03.064Z,3.2
2022-09-12T12:59:03.660Z,3.2
2022-09-12T13:00:04.263Z,2.6
2022-09-12T13:01:04.866Z,2.8
2022-09-12T13:02:05.574Z,3.7
2022-09-12T13:03:06.145Z,3.2
2022-09-12T13:04:06.747Z,2.6
2022-09-12T13:05:07.350Z,2.8
2022-09-12T13:06:07.952Z,3.1
2022-09-12T13:07:08.894Z,2.9
2022-09-12T13:08:09.484Z,3.1
2022-09-12T13:09:10.088Z,3.1
2022-09-12T13:10:10.717Z,3.2
2022-09-12T13:11:11.340Z,3.1
2022-09-12T13:12:11.941Z,3.2
2022-09-12T13:13:12.544Z,4.5
2022-09-12T13:14:13.149Z,3.1
2022-09-12T13:15:13.755Z,2.6
2022-09-12T13:16:14.451Z,2.6
2022-09-12T13:17:15.000Z,6.7
2022-09-12T13:18:15.601Z,2.8
2022-09-12T13:19:18.364Z,2.9
2022-09-12T13:20:27.959Z,3.2
2022-09-12T13:21:19.400Z,2.6
2022-09-12T13:22:20.003Z,4.5
2022-09-12T13:23:20.609Z,2.5
2022-09-12T13:24:21.210Z,2.8
2022-09-12T13:25:21.815Z,2.3
2022-09-12T13:26:22.419Z,3.0
2022-09-12T13:27:23.025Z,3.2
2022-09-12T13:28:23.627Z,2.6
2022-09-12T13:29:24.230Z,3.0
2022-09-12T13:30:24.832Z,3.8
2022-09-12T13:31:25.499Z,2.9
2022-09-12T13:32:26.090Z,3.9
2022-09-12T13:33:26.702Z,4.7
2022-09-12T13:34:27.297Z,3.6
2022-09-12T13:35:27.899Z,3.6
2022-09-12T13:36:28.504Z,3.1
2022-09-12T13:37:29.110Z,4.0
2022-09-12T13:38:29.728Z,3.2